ANA154 RJFK-RJOB
Flight info
| Callsign | ANA154 |
|---|---|
| Flight time | 0h 51m |
| Altitude | 31000 |
| Route | RJFK/16 MIZOB1 HKC A1 SUC V53 KTE DCT OYE DCT RJOB/07 |
| Aircraft | A320/M-V/N |
Departure
| Time | 2026-04-25 02:22 |
|---|---|
| Airport | Kagoshima Airport (RJFK) |
Arrival
| Time | 2026-04-25 03:13 |
|---|---|
| Airport | Okayama Momotaro Airport (RJOB) |
| Time | Latitude | Longitude | Altitude | Speed | Heading |
|---|---|---|---|---|---|
| 2026-04-25 02:11 | 31.80133 | 130.71680 | 891 ft | 0 kts | 240° |
| 2026-04-25 02:12 | 31.80134 | 130.71681 | 891 ft | 0 kts | 240° |
| 2026-04-25 02:13 | 31.80137 | 130.71689 | 891 ft | 2 kts | 254° |
| 2026-04-25 02:14 | 31.80143 | 130.71704 | 891 ft | 2 kts | 236° |
| 2026-04-25 02:14 | 31.80151 | 130.71719 | 891 ft | 2 kts | 241° |
| 2026-04-25 02:14 | 31.80158 | 130.71735 | 891 ft | 2 kts | 239° |
| 2026-04-25 02:14 | 31.80166 | 130.71750 | 891 ft | 2 kts | 249° |
| 2026-04-25 02:15 | 31.80167 | 130.71770 | 891 ft | 2 kts | 284° |
| 2026-04-25 02:15 | 31.80160 | 130.71786 | 891 ft | 2 kts | 315° |
| 2026-04-25 02:15 | 31.80148 | 130.71796 | 891 ft | 0 kts | 340° |
| 2026-04-25 02:15 | 31.80142 | 130.71797 | 891 ft | 1 kts | 346° |
| 2026-04-25 02:16 | 31.80141 | 130.71799 | 891 ft | 0 kts | 345° |
| 2026-04-25 02:18 | 31.80141 | 130.71797 | 891 ft | 0 kts | 345° |
| 2026-04-25 02:18 | 31.80201 | 130.71779 | 891 ft | 21 kts | 344° |
| 2026-04-25 02:18 | 31.80381 | 130.71689 | 891 ft | 42 kts | 329° |
| 2026-04-25 02:18 | 31.80639 | 130.71509 | 895 ft | 50 kts | 328° |
| 2026-04-25 02:19 | 31.80895 | 130.71339 | 897 ft | 46 kts | 333° |
| 2026-04-25 02:19 | 31.81137 | 130.71211 | 897 ft | 38 kts | 319° |
| 2026-04-25 02:19 | 31.81301 | 130.71054 | 900 ft | 32 kts | 328° |
| 2026-04-25 02:19 | 31.81470 | 130.71036 | 898 ft | 29 kts | 57° |
| 2026-04-25 02:20 | 31.81427 | 130.71204 | 891 ft | 22 kts | 149° |
| 2026-04-25 02:20 | 31.81395 | 130.71225 | 890 ft | 0 kts | 149° |
| 2026-04-25 02:21 | 31.81223 | 130.71346 | 889 ft | 67 kts | 150° |
| 2026-04-25 02:22 | 31.80703 | 130.71698 | 890 ft | 125 kts | 151° |
| 2026-04-25 02:22 | 31.79907 | 130.72246 | 904 ft | 171 kts | 147° |
| 2026-04-25 02:22 | 31.78960 | 130.72896 | 1288 ft | 182 kts | 149° |
| 2026-04-25 02:22 | 31.77931 | 130.73485 | 1952 ft | 187 kts | 165° |
| 2026-04-25 02:23 | 31.76777 | 130.73399 | 2527 ft | 200 kts | 200° |
| 2026-04-25 02:23 | 31.75787 | 130.72523 | 3030 ft | 216 kts | 237° |
| 2026-04-25 02:23 | 31.75228 | 130.71115 | 3571 ft | 228 kts | 248° |
| 2026-04-25 02:23 | 31.74715 | 130.69589 | 4085 ft | 241 kts | 247° |
| 2026-04-25 02:24 | 31.74096 | 130.67952 | 4637 ft | 254 kts | 244° |
| 2026-04-25 02:24 | 31.73364 | 130.66209 | 5196 ft | 268 kts | 242° |
| 2026-04-25 02:24 | 31.72544 | 130.64381 | 5802 ft | 281 kts | 241° |
| 2026-04-25 02:24 | 31.71740 | 130.62705 | 6535 ft | 284 kts | 235° |
| 2026-04-25 02:25 | 31.70505 | 130.61217 | 7394 ft | 282 kts | 212° |
| 2026-04-25 02:25 | 31.68930 | 130.60396 | 8207 ft | 281 kts | 191° |
| 2026-04-25 02:25 | 31.67322 | 130.60259 | 8950 ft | 280 kts | 173° |
| 2026-04-25 02:25 | 31.65776 | 130.60731 | 9658 ft | 281 kts | 155° |
| 2026-04-25 02:26 | 31.64407 | 130.61786 | 10335 ft | 284 kts | 137° |
| 2026-04-25 02:26 | 31.63366 | 130.63339 | 10772 ft | 297 kts | 119° |
| 2026-04-25 02:26 | 31.62808 | 130.65349 | 11107 ft | 314 kts | 97° |
| 2026-04-25 02:26 | 31.62917 | 130.67548 | 11459 ft | 329 kts | 76° |
| 2026-04-25 02:27 | 31.63781 | 130.69663 | 11841 ft | 342 kts | 52° |
| 2026-04-25 02:27 | 31.65319 | 130.71251 | 12344 ft | 348 kts | 28° |
| 2026-04-25 02:27 | 31.67286 | 130.72011 | 12904 ft | 349 kts | 4° |
| 2026-04-25 02:27 | 31.69317 | 130.71831 | 13461 ft | 347 kts | 343° |
| 2026-04-25 02:28 | 31.71324 | 130.71178 | 14115 ft | 349 kts | 345° |
| 2026-04-25 02:28 | 31.73459 | 130.71037 | 14716 ft | 358 kts | 6° |
| 2026-04-25 02:28 | 31.75517 | 130.71886 | 15339 ft | 366 kts | 29° |
| 2026-04-25 02:28 | 31.77206 | 130.73622 | 15860 ft | 374 kts | 52° |
| 2026-04-25 02:29 | 31.78324 | 130.75941 | 16349 ft | 381 kts | 66° |
| 2026-04-25 02:29 | 31.79240 | 130.78532 | 16829 ft | 387 kts | 68° |
| 2026-04-25 02:29 | 31.80142 | 130.81104 | 17272 ft | 393 kts | 66° |
| 2026-04-25 02:29 | 31.81114 | 130.83684 | 17743 ft | 398 kts | 64° |
| 2026-04-25 02:30 | 31.82157 | 130.86266 | 18235 ft | 403 kts | 63° |
| 2026-04-25 02:30 | 31.83260 | 130.88870 | 18733 ft | 407 kts | 62° |
| 2026-04-25 02:30 | 31.84378 | 130.91444 | 19186 ft | 412 kts | 62° |
| 2026-04-25 02:30 | 31.85553 | 130.94124 | 19642 ft | 417 kts | 62° |
| 2026-04-25 02:31 | 31.86719 | 130.96777 | 20107 ft | 421 kts | 62° |
| 2026-04-25 02:31 | 31.87891 | 130.99437 | 20579 ft | 424 kts | 62° |
| 2026-04-25 02:31 | 31.89097 | 131.02193 | 21051 ft | 428 kts | 61° |
| 2026-04-25 02:31 | 31.90309 | 131.04950 | 21502 ft | 432 kts | 61° |
| 2026-04-25 02:32 | 31.91550 | 131.07759 | 21958 ft | 436 kts | 61° |
| 2026-04-25 02:32 | 31.92811 | 131.10599 | 22414 ft | 440 kts | 61° |
| 2026-04-25 02:32 | 31.94074 | 131.13451 | 22878 ft | 443 kts | 61° |
| 2026-04-25 02:32 | 31.95360 | 131.16350 | 23307 ft | 447 kts | 61° |
| 2026-04-25 02:33 | 31.96680 | 131.19328 | 23702 ft | 451 kts | 62° |
| 2026-04-25 02:33 | 31.97988 | 131.22284 | 24078 ft | 456 kts | 62° |
| 2026-04-25 02:33 | 31.99330 | 131.25314 | 24438 ft | 461 kts | 62° |
| 2026-04-25 02:33 | 32.00691 | 131.28401 | 24796 ft | 467 kts | 62° |
| 2026-04-25 02:34 | 32.02078 | 131.31546 | 25261 ft | 469 kts | 62° |
| 2026-04-25 02:34 | 32.03487 | 131.34750 | 25667 ft | 473 kts | 63° |
| 2026-04-25 02:34 | 32.04917 | 131.37999 | 26010 ft | 478 kts | 63° |
| 2026-04-25 02:34 | 32.06333 | 131.41219 | 26347 ft | 483 kts | 63° |
| 2026-04-25 02:35 | 32.07782 | 131.44525 | 26693 ft | 488 kts | 63° |
| 2026-04-25 02:35 | 32.09251 | 131.47876 | 27052 ft | 493 kts | 63° |
| 2026-04-25 02:35 | 32.10703 | 131.51196 | 27486 ft | 494 kts | 63° |
| 2026-04-25 02:35 | 32.12150 | 131.54501 | 27949 ft | 494 kts | 63° |
| 2026-04-25 02:36 | 32.13612 | 131.57843 | 28379 ft | 495 kts | 64° |
| 2026-04-25 02:36 | 32.15064 | 131.61142 | 28786 ft | 496 kts | 63° |
| 2026-04-25 02:36 | 32.16537 | 131.64458 | 29191 ft | 497 kts | 64° |
| 2026-04-25 02:36 | 32.18025 | 131.67781 | 29599 ft | 497 kts | 64° |
| 2026-04-25 02:37 | 32.19510 | 131.71126 | 29928 ft | 499 kts | 64° |
| 2026-04-25 02:37 | 32.20992 | 131.74466 | 30172 ft | 503 kts | 64° |
| 2026-04-25 02:37 | 32.22561 | 131.78009 | 30435 ft | 507 kts | 63° |
| 2026-04-25 02:37 | 32.24087 | 131.81450 | 30731 ft | 509 kts | 64° |
| 2026-04-25 02:38 | 32.25571 | 131.84795 | 31021 ft | 511 kts | 63° |
| 2026-04-25 02:38 | 32.28727 | 131.91928 | 31122 ft | 514 kts | 63° |
| 2026-04-25 02:39 | 32.31830 | 131.98962 | 31120 ft | 515 kts | 63° |
| 2026-04-25 02:39 | 32.34748 | 132.05580 | 31120 ft | 514 kts | 63° |
| 2026-04-25 02:40 | 32.37672 | 132.12230 | 31121 ft | 514 kts | 63° |
| 2026-04-25 02:40 | 32.40757 | 132.19261 | 31121 ft | 515 kts | 63° |
| 2026-04-25 02:41 | 32.43805 | 132.26225 | 31117 ft | 514 kts | 63° |
| 2026-04-25 02:41 | 32.46846 | 132.33192 | 31117 ft | 515 kts | 63° |
| 2026-04-25 02:42 | 32.49860 | 132.40099 | 31117 ft | 516 kts | 64° |
| 2026-04-25 02:42 | 32.52908 | 132.47098 | 31110 ft | 516 kts | 63° |
| 2026-04-25 02:43 | 32.55875 | 132.53944 | 31115 ft | 516 kts | 63° |
| 2026-04-25 02:43 | 32.58814 | 132.60698 | 31109 ft | 515 kts | 63° |
| 2026-04-25 02:44 | 32.61747 | 132.67488 | 31102 ft | 516 kts | 63° |
| 2026-04-25 02:44 | 32.64609 | 132.74100 | 31105 ft | 516 kts | 64° |
| 2026-04-25 02:45 | 32.67524 | 132.80867 | 31107 ft | 516 kts | 64° |
| 2026-04-25 02:45 | 32.70441 | 132.87656 | 31107 ft | 516 kts | 64° |
| 2026-04-25 02:46 | 32.73390 | 132.94428 | 31105 ft | 515 kts | 60° |
| 2026-04-25 02:46 | 32.77153 | 133.00619 | 31107 ft | 512 kts | 43° |
| 2026-04-25 02:47 | 32.81981 | 133.05548 | 31121 ft | 504 kts | 29° |
| 2026-04-25 02:47 | 32.87175 | 133.09833 | 31116 ft | 505 kts | 27° |
| 2026-04-25 02:48 | 32.92399 | 133.14214 | 31120 ft | 506 kts | 29° |
| 2026-04-25 02:48 | 32.97532 | 133.18643 | 31129 ft | 506 kts | 30° |
| 2026-04-25 02:49 | 33.02644 | 133.23090 | 31133 ft | 506 kts | 30° |
| 2026-04-25 02:49 | 33.07804 | 133.27594 | 31138 ft | 506 kts | 30° |
| 2026-04-25 02:50 | 33.12922 | 133.32053 | 31143 ft | 505 kts | 30° |
| 2026-04-25 02:50 | 33.18072 | 133.36522 | 30913 ft | 504 kts | 30° |
| 2026-04-25 02:50 | 33.20591 | 133.38711 | 30641 ft | 503 kts | 30° |
| 2026-04-25 02:51 | 33.23120 | 133.40921 | 30314 ft | 499 kts | 29° |
| 2026-04-25 02:51 | 33.25637 | 133.43114 | 29924 ft | 496 kts | 30° |
| 2026-04-25 02:51 | 33.28138 | 133.45296 | 29442 ft | 496 kts | 30° |
| 2026-04-25 02:51 | 33.30667 | 133.47504 | 28999 ft | 495 kts | 30° |
| 2026-04-25 02:52 | 33.33246 | 133.49757 | 28521 ft | 495 kts | 30° |
| 2026-04-25 02:52 | 33.35809 | 133.51996 | 28055 ft | 493 kts | 30° |
| 2026-04-25 02:52 | 33.38335 | 133.54189 | 27571 ft | 493 kts | 30° |
| 2026-04-25 02:52 | 33.40853 | 133.56383 | 27091 ft | 491 kts | 30° |
| 2026-04-25 02:53 | 33.43264 | 133.58478 | 26663 ft | 488 kts | 31° |
| 2026-04-25 02:53 | 33.45629 | 133.60542 | 26181 ft | 488 kts | 30° |
| 2026-04-25 02:53 | 33.47978 | 133.62593 | 25697 ft | 486 kts | 31° |
| 2026-04-25 02:53 | 33.50413 | 133.64719 | 25258 ft | 483 kts | 31° |
| 2026-04-25 02:54 | 33.52887 | 133.66800 | 24890 ft | 470 kts | 27° |
| 2026-04-25 02:54 | 33.55319 | 133.68526 | 24541 ft | 453 kts | 22° |
| 2026-04-25 02:54 | 33.57876 | 133.70001 | 24177 ft | 442 kts | 18° |
| 2026-04-25 02:54 | 33.60336 | 133.71252 | 23782 ft | 439 kts | 17° |
| 2026-04-25 02:55 | 33.62930 | 133.72536 | 23377 ft | 434 kts | 17° |
| 2026-04-25 02:55 | 33.65440 | 133.73775 | 23038 ft | 429 kts | 17° |
| 2026-04-25 02:55 | 33.67867 | 133.74989 | 22673 ft | 426 kts | 18° |
| 2026-04-25 02:55 | 33.70303 | 133.76222 | 22283 ft | 423 kts | 17° |
| 2026-04-25 02:56 | 33.72748 | 133.77466 | 21911 ft | 420 kts | 18° |
| 2026-04-25 02:56 | 33.75142 | 133.78685 | 21499 ft | 418 kts | 18° |
| 2026-04-25 02:56 | 33.77521 | 133.79898 | 21063 ft | 416 kts | 18° |
| 2026-04-25 02:56 | 33.79897 | 133.81116 | 20663 ft | 413 kts | 18° |
| 2026-04-25 02:57 | 33.82203 | 133.82292 | 20286 ft | 410 kts | 18° |
| 2026-04-25 02:57 | 33.84525 | 133.83479 | 19864 ft | 408 kts | 18° |
| 2026-04-25 02:57 | 33.86835 | 133.84654 | 19449 ft | 406 kts | 18° |
| 2026-04-25 02:57 | 33.89101 | 133.85811 | 19042 ft | 404 kts | 18° |
| 2026-04-25 02:58 | 33.91393 | 133.86980 | 18613 ft | 403 kts | 18° |
| 2026-04-25 02:58 | 33.93654 | 133.88133 | 18199 ft | 401 kts | 18° |
| 2026-04-25 02:58 | 33.95924 | 133.89298 | 17778 ft | 399 kts | 19° |
| 2026-04-25 02:58 | 33.98316 | 133.90521 | 17358 ft | 396 kts | 19° |
| 2026-04-25 02:59 | 34.00517 | 133.91647 | 16976 ft | 393 kts | 19° |
| 2026-04-25 02:59 | 34.02772 | 133.92802 | 16587 ft | 390 kts | 19° |
| 2026-04-25 02:59 | 34.04986 | 133.93930 | 16181 ft | 386 kts | 19° |
| 2026-04-25 02:59 | 34.07215 | 133.95071 | 15793 ft | 383 kts | 20° |
| 2026-04-25 03:00 | 34.09450 | 133.96211 | 15408 ft | 379 kts | 20° |
| 2026-04-25 03:00 | 34.11671 | 133.97350 | 15039 ft | 375 kts | 20° |
| 2026-04-25 03:00 | 34.13848 | 133.98463 | 14639 ft | 371 kts | 21° |
| 2026-04-25 03:00 | 34.15989 | 133.99561 | 14239 ft | 367 kts | 21° |
| 2026-04-25 03:01 | 34.18137 | 134.00612 | 13852 ft | 361 kts | 15° |
| 2026-04-25 03:01 | 34.20321 | 134.00954 | 13423 ft | 354 kts | 354° |
| 2026-04-25 03:01 | 34.22421 | 134.00218 | 12991 ft | 348 kts | 331° |
| 2026-04-25 03:01 | 34.24125 | 133.98590 | 12558 ft | 345 kts | 312° |
| 2026-04-25 03:02 | 34.25521 | 133.96561 | 12144 ft | 342 kts | 310° |
| 2026-04-25 03:02 | 34.26884 | 133.94560 | 11732 ft | 340 kts | 311° |
| 2026-04-25 03:02 | 34.28241 | 133.92593 | 11281 ft | 339 kts | 311° |
| 2026-04-25 03:02 | 34.29754 | 133.90428 | 10838 ft | 336 kts | 312° |
| 2026-04-25 03:03 | 34.31204 | 133.88377 | 10365 ft | 334 kts | 312° |
| 2026-04-25 03:03 | 34.32568 | 133.86449 | 10181 ft | 324 kts | 313° |
| 2026-04-25 03:03 | 34.33861 | 133.84627 | 10068 ft | 309 kts | 313° |
| 2026-04-25 03:03 | 34.35096 | 133.82889 | 9966 ft | 291 kts | 313° |
| 2026-04-25 03:04 | 34.36280 | 133.81227 | 9719 ft | 285 kts | 313° |
| 2026-04-25 03:04 | 34.37463 | 133.79561 | 9380 ft | 284 kts | 314° |
| 2026-04-25 03:04 | 34.38639 | 133.77911 | 9068 ft | 282 kts | 314° |
| 2026-04-25 03:05 | 34.40937 | 133.74680 | 8444 ft | 279 kts | 313° |
| 2026-04-25 03:05 | 34.42084 | 133.73067 | 8155 ft | 277 kts | 313° |
| 2026-04-25 03:05 | 34.43212 | 133.71478 | 7846 ft | 277 kts | 313° |
| 2026-04-25 03:05 | 34.44350 | 133.69870 | 7557 ft | 276 kts | 313° |
| 2026-04-25 03:06 | 34.45483 | 133.68269 | 7278 ft | 274 kts | 313° |
| 2026-04-25 03:06 | 34.46619 | 133.66667 | 6986 ft | 273 kts | 313° |
| 2026-04-25 03:06 | 34.47770 | 133.65045 | 6689 ft | 272 kts | 314° |
| 2026-04-25 03:06 | 34.48922 | 133.63449 | 6385 ft | 271 kts | 317° |
| 2026-04-25 03:07 | 34.50330 | 133.62288 | 6068 ft | 265 kts | 345° |
| 2026-04-25 03:07 | 34.52007 | 133.61984 | 5774 ft | 258 kts | 2° |
| 2026-04-25 03:07 | 34.53683 | 133.62001 | 5495 ft | 257 kts | 4° |
| 2026-04-25 03:07 | 34.55418 | 133.62027 | 5200 ft | 257 kts | 4° |
| 2026-04-25 03:08 | 34.57123 | 133.62027 | 4967 ft | 253 kts | 3° |
| 2026-04-25 03:08 | 34.58792 | 133.62019 | 4954 ft | 238 kts | 6° |
| 2026-04-25 03:08 | 34.60282 | 133.62370 | 4890 ft | 226 kts | 24° |
| 2026-04-25 03:08 | 34.61603 | 133.63152 | 4515 ft | 229 kts | 32° |
| 2026-04-25 03:09 | 34.62905 | 133.64064 | 4135 ft | 232 kts | 33° |
| 2026-04-25 03:09 | 34.64256 | 133.65021 | 3747 ft | 236 kts | 32° |
| 2026-04-25 03:09 | 34.65631 | 133.65994 | 3349 ft | 240 kts | 36° |
| 2026-04-25 03:09 | 34.66765 | 133.67294 | 3152 ft | 230 kts | 55° |
| 2026-04-25 03:10 | 34.67535 | 133.68759 | 3149 ft | 216 kts | 61° |
| 2026-04-25 03:10 | 34.68211 | 133.70221 | 3152 ft | 214 kts | 60° |
| 2026-04-25 03:10 | 34.68885 | 133.71663 | 3060 ft | 208 kts | 60° |
| 2026-04-25 03:10 | 34.69555 | 133.73050 | 2830 ft | 207 kts | 59° |
| 2026-04-25 03:11 | 34.70252 | 133.74468 | 2578 ft | 206 kts | 60° |
| 2026-04-25 03:11 | 34.70927 | 133.75838 | 2397 ft | 200 kts | 60° |
| 2026-04-25 03:11 | 34.71580 | 133.77167 | 2159 ft | 196 kts | 58° |
| 2026-04-25 03:11 | 34.72207 | 133.78444 | 1884 ft | 185 kts | 57° |
| 2026-04-25 03:12 | 34.72806 | 133.79665 | 1643 ft | 174 kts | 60° |
| 2026-04-25 03:12 | 34.73367 | 133.80806 | 1427 ft | 164 kts | 58° |
| 2026-04-25 03:12 | 34.73889 | 133.81873 | 1259 ft | 149 kts | 59° |
| 2026-04-25 03:12 | 34.74378 | 133.82869 | 1023 ft | 139 kts | 59° |
| 2026-04-25 03:13 | 34.74831 | 133.83784 | 885 ft | 137 kts | 61° |
| 2026-04-25 03:13 | 34.75270 | 133.84679 | 802 ft | 109 kts | 62° |
| 2026-04-25 03:13 | 34.75509 | 133.85176 | 793 ft | 51 kts | 59° |
| 2026-04-25 03:13 | 34.75669 | 133.85494 | 790 ft | 39 kts | 28° |
| 2026-04-25 03:14 | 34.75853 | 133.85475 | 801 ft | 18 kts | 355° |
| 2026-04-25 03:14 | 34.75914 | 133.85432 | 805 ft | 8 kts | 340° |
| 2026-04-25 03:14 | 34.75975 | 133.85390 | 809 ft | 5 kts | 330° |
| 2026-04-25 03:14 | 34.75977 | 133.85388 | 810 ft | 0 kts | 330° |